createdAt,value
2023-04-12T09:48:28.946Z,99.90
2023-04-12T09:51:01.502Z,96.90
2023-04-12T09:53:29.632Z,96.70
2023-04-12T09:55:58.367Z,98.40
2023-04-12T09:58:26.954Z,98.30
2023-04-12T10:00:57.473Z,97.30
2023-04-12T10:03:24.978Z,96.80
2023-04-12T10:05:53.227Z,97.40
2023-04-12T10:08:22.765Z,94.10
2023-04-12T10:10:50.030Z,95.20
2023-04-12T10:13:18.818Z,95.40
2023-04-12T10:15:51.259Z,93.90
2023-04-12T10:18:19.351Z,94.70
2023-04-12T10:20:47.842Z,95.70
2023-04-12T10:23:18.725Z,92.50
2023-04-12T10:25:48.570Z,95.60
2023-04-12T10:28:23.291Z,90.40
2023-04-12T10:30:52.486Z,90.70
2023-04-12T10:33:26.182Z,89.30
2023-04-12T10:36:08.667Z,86.50
2023-04-12T10:38:46.983Z,88.00
2023-04-12T10:41:18.034Z,90.10
2023-04-12T10:43:50.765Z,90.00
2023-04-12T10:46:45.999Z,82.40
2023-04-12T10:49:18.321Z,88.20
2023-04-12T10:52:09.378Z,88.40
2023-04-12T10:54:37.647Z,79.70
2023-04-12T10:57:08.346Z,89.00
2023-04-12T10:59:56.960Z,88.50
2023-04-12T11:02:24.869Z,86.30
2023-04-12T11:05:11.666Z,87.40
2023-04-12T11:08:12.674Z,89.70
2023-04-12T11:10:41.714Z,86.50
2023-04-12T11:13:15.168Z,85.70
2023-04-12T11:15:42.586Z,84.00
2023-04-12T11:18:13.350Z,84.70
2023-04-12T11:20:43.144Z,86.70
2023-04-12T11:23:11.895Z,88.40
2023-04-12T11:25:39.197Z,84.00
2023-04-12T11:28:21.244Z,79.40
2023-04-12T11:30:58.236Z,80.10
2023-04-12T11:33:39.097Z,80.10
2023-04-12T11:36:07.772Z,86.10
2023-04-12T11:38:38.336Z,78.80
2023-04-12T11:41:08.316Z,79.10
2023-04-12T11:43:39.001Z,81.30
2023-04-12T11:46:06.766Z,80.60
2023-04-12T11:48:34.170Z,74.10
2023-04-12T11:51:11.030Z,71.20
2023-04-12T11:53:39.624Z,69.70
2023-04-12T11:56:10.401Z,70.60
2023-04-12T11:58:37.642Z,67.20
2023-04-12T12:01:05.052Z,58.40
2023-04-12T12:03:32.507Z,54.80
2023-04-12T12:06:00.223Z,51.10
2023-04-12T12:08:28.404Z,47.40
2023-04-12T12:11:07.289Z,50.60
2023-04-12T12:13:49.862Z,48.50
2023-04-12T12:16:18.851Z,58.40
2023-04-12T12:18:51.059Z,50.80
2023-04-12T12:21:20.902Z,54.10
2023-04-12T12:23:49.144Z,58.40
2023-04-12T12:26:28.546Z,53.80
2023-04-12T12:28:57.639Z,59.90
2023-04-12T12:31:28.128Z,55.50
2023-04-12T12:33:57.558Z,53.40
2023-04-12T12:36:33.032Z,49.90
2023-04-12T12:39:10.708Z,48.20
2023-04-12T12:41:39.656Z,50.80
2023-04-12T12:44:08.477Z,49.90
2023-04-12T12:49:06.501Z,47.90
2023-04-12T12:51:33.841Z,50.90
2023-04-12T12:54:01.545Z,49.50
2023-04-12T12:56:28.836Z,50.70
2023-04-12T12:58:56.229Z,50.40
2023-04-12T13:01:23.780Z,47.40
2023-04-12T13:06:18.317Z,46.30
2023-04-12T13:08:46.934Z,51.20
2023-04-12T13:11:15.788Z,48.80
2023-04-12T13:13:44.414Z,49.40
2023-04-12T13:16:12.289Z,48.40
2023-04-12T13:18:40.121Z,45.50
2023-04-12T13:21:08.422Z,51.40
2023-04-12T13:23:36.187Z,50.00
2023-04-12T13:26:03.639Z,50.00
2023-04-12T13:28:30.824Z,52.60
2023-04-12T13:30:58.009Z,53.20
2023-04-12T13:33:25.281Z,57.00
2023-04-12T13:35:52.471Z,57.50
2023-04-12T13:38:19.934Z,59.70
2023-04-12T13:40:47.235Z,62.80
2023-04-12T13:43:14.747Z,66.90
2023-04-12T13:45:42.304Z,62.40
2023-04-12T13:48:09.809Z,59.70
2023-04-12T13:50:37.188Z,62.10
2023-04-12T13:53:04.327Z,66.40
2023-04-12T13:55:31.779Z,67.40
2023-04-12T13:57:58.846Z,67.20
2023-04-12T14:00:26.070Z,68.90
2023-04-12T14:02:53.272Z,64.90
2023-04-12T14:05:20.765Z,64.10
2023-04-12T14:07:49.987Z,66.30
2023-04-12T14:10:17.309Z,64.70
2023-04-12T14:12:44.381Z,68.90
2023-04-12T14:15:11.713Z,63.80
2023-04-12T14:17:38.965Z,66.10
2023-04-12T14:20:11.077Z,68.20
2023-04-12T14:22:38.259Z,69.00
2023-04-12T14:25:06.483Z,72.30
2023-04-12T14:27:35.671Z,72.30
2023-04-12T14:30:03.599Z,70.80
2023-04-12T14:32:31.567Z,73.60
2023-04-12T14:34:58.738Z,74.70
2023-04-12T14:37:26.296Z,74.10
2023-04-12T14:39:54.777Z,75.30
2023-04-12T14:42:22.205Z,75.40
2023-04-12T14:44:49.429Z,74.90
2023-04-12T14:47:16.734Z,72.30
2023-04-12T14:49:43.941Z,74.90
2023-04-12T14:52:11.350Z,77.40
2023-04-12T14:54:38.499Z,76.20
2023-04-12T14:57:05.706Z,74.90
2023-04-12T14:59:33.249Z,76.90
2023-04-12T15:02:01.004Z,76.30
2023-04-12T15:04:28.735Z,76.60
2023-04-12T15:06:56.250Z,75.70
2023-04-12T15:09:23.471Z,76.50
2023-04-12T15:11:52.272Z,77.30
2023-04-12T15:14:20.649Z,77.60
2023-04-12T15:16:51.572Z,80.20
2023-04-12T15:19:22.913Z,77.70
2023-04-12T15:21:57.307Z,77.70
2023-04-12T15:24:27.377Z,77.60
2023-04-12T15:26:54.638Z,77.70
2023-04-12T15:29:27.088Z,78.30
2023-04-12T15:31:56.736Z,78.90
2023-04-12T15:34:26.292Z,79.20
2023-04-12T15:36:53.627Z,79.20
2023-04-12T15:39:21.476Z,79.40
2023-04-12T15:41:48.751Z,77.90
2023-04-12T15:44:16.518Z,77.60
2023-04-12T15:46:43.756Z,77.80
2023-04-12T15:49:11.636Z,78.90
2023-04-12T15:51:39.604Z,77.90
2023-04-12T15:54:07.076Z,79.20
2023-04-12T15:56:35.755Z,80.90
2023-04-12T15:59:03.299Z,80.90
2023-04-12T16:01:30.508Z,80.40
2023-04-12T16:03:58.314Z,81.40
2023-04-12T16:06:25.822Z,81.00
2023-04-12T16:08:57.972Z,78.90
2023-04-12T16:11:25.963Z,78.20
2023-04-12T16:13:54.612Z,79.10
2023-04-12T16:16:23.758Z,78.60
2023-04-12T16:18:53.070Z,82.10
2023-04-12T16:21:23.395Z,81.60
2023-04-12T16:23:51.474Z,81.00
2023-04-12T16:26:22.185Z,80.30
2023-04-12T16:28:53.607Z,79.70
2023-04-12T16:31:22.005Z,82.50
2023-04-12T16:33:51.168Z,80.90
2023-04-12T16:36:19.746Z,82.80
2023-04-12T16:38:46.909Z,81.70
2023-04-12T16:41:14.676Z,81.30
2023-04-12T16:43:43.404Z,81.50
2023-04-12T16:46:12.708Z,82.50
2023-04-12T16:48:41.323Z,82.10
2023-04-12T16:51:09.083Z,84.80
2023-04-12T16:53:37.810Z,84.70
2023-04-12T16:56:05.392Z,85.50
2023-04-12T16:58:33.558Z,86.20
2023-04-12T17:01:01.570Z,84.30
2023-04-12T17:03:29.016Z,85.70
2023-04-12T17:05:56.959Z,86.40
2023-04-12T17:08:24.156Z,87.40
2023-04-12T17:10:51.598Z,87.50
2023-04-12T17:13:20.425Z,89.80
2023-04-12T17:15:48.443Z,90.00
2023-04-12T17:18:16.307Z,89.10
2023-04-12T17:20:44.356Z,90.10
2023-04-12T17:23:11.960Z,90.60
2023-04-12T17:25:39.490Z,90.60
2023-04-12T17:28:08.537Z,90.30
2023-04-12T17:30:36.390Z,90.70
2023-04-12T17:33:03.705Z,91.30
2023-04-12T17:35:31.370Z,91.60
2023-04-12T17:37:58.617Z,91.90
2023-04-12T17:40:26.311Z,92.70
2023-04-12T17:42:53.600Z,92.40
2023-04-12T17:45:22.052Z,91.70
2023-04-12T17:47:49.370Z,92.90
2023-04-12T17:50:17.007Z,93.20
2023-04-12T17:52:44.896Z,93.70
2023-04-12T17:55:13.108Z,93.30
2023-04-12T17:57:40.798Z,94.00
2023-04-12T18:00:12.049Z,93.00
2023-04-12T18:02:40.846Z,93.30
2023-04-12T18:05:08.525Z,94.00
2023-04-12T18:07:36.007Z,94.20
2023-04-12T18:10:03.489Z,93.80
2023-04-12T18:12:31.316Z,94.00
2023-04-12T18:14:59.098Z,94.00
2023-04-12T18:17:27.024Z,94.10
2023-04-12T18:19:55.086Z,93.60
2023-04-12T18:22:22.927Z,93.60
2023-04-12T18:24:50.322Z,93.60
2023-04-12T18:27:17.635Z,93.30
2023-04-12T18:29:44.930Z,93.80
2023-04-12T18:32:12.911Z,93.40
2023-04-12T18:34:40.045Z,93.60
2023-04-12T18:37:07.781Z,94.20
2023-04-12T18:39:35.963Z,94.20
2023-04-12T18:42:03.266Z,95.00
2023-04-12T18:44:31.532Z,94.90
2023-04-12T18:46:58.825Z,95.30
2023-04-12T18:49:26.217Z,95.80
2023-04-12T18:51:58.213Z,95.70
2023-04-12T18:54:27.761Z,95.30
2023-04-12T18:56:58.715Z,95.70
2023-04-12T18:59:26.809Z,95.40
2023-04-12T19:01:54.909Z,95.70
2023-04-12T19:04:22.869Z,96.50
2023-04-12T19:06:50.155Z,97.40
2023-04-12T19:09:17.409Z,97.20
2023-04-12T19:11:45.517Z,97.50
2023-04-12T19:14:13.313Z,97.80
2023-04-12T19:16:41.048Z,96.90
2023-04-12T19:19:08.719Z,96.30
2023-04-12T19:21:36.538Z,96.80
2023-04-12T19:24:03.945Z,96.90
2023-04-12T19:26:32.237Z,98.00
2023-04-12T19:28:59.456Z,97.90
2023-04-12T19:31:26.745Z,98.30
2023-04-12T19:33:57.454Z,98.90
2023-04-12T19:36:25.782Z,98.70
2023-04-12T19:38:53.082Z,98.20
2023-04-12T19:41:20.874Z,97.60
2023-04-12T19:43:48.249Z,98.10
2023-04-12T19:46:15.747Z,99.00
2023-04-12T19:48:43.090Z,99.90
2023-04-12T19:51:10.380Z,99.90
2023-04-12T19:53:37.626Z,99.90
2023-04-12T19:56:06.299Z,99.90
2023-04-12T19:58:33.683Z,99.90
2023-04-12T20:01:05.046Z,99.90
2023-04-12T20:03:33.058Z,99.90
2023-04-12T20:06:04.208Z,99.90
2023-04-12T20:08:32.240Z,99.90
2023-04-12T20:11:00.031Z,99.90
2023-04-12T20:13:28.819Z,99.90
2023-04-12T20:15:56.419Z,99.90
2023-04-12T20:18:23.605Z,99.90
2023-04-12T20:20:52.072Z,99.90
2023-04-12T20:23:20.197Z,99.90
2023-04-12T20:25:49.644Z,99.90
2023-04-12T20:28:16.845Z,99.90
2023-04-12T20:30:48.045Z,99.90
2023-04-12T20:33:16.068Z,99.90
2023-04-12T20:35:43.169Z,99.90
2023-04-12T20:38:10.390Z,99.90
2023-04-12T20:40:38.281Z,99.90
2023-04-12T20:43:06.108Z,99.90
2023-04-12T20:45:34.858Z,99.90
2023-04-12T20:48:02.453Z,99.90
2023-04-12T20:50:30.947Z,99.90
2023-04-12T20:52:58.140Z,99.90
2023-04-12T20:55:25.311Z,99.90
2023-04-12T20:57:55.899Z,99.90
2023-04-12T21:00:23.938Z,99.90
2023-04-12T21:02:51.190Z,99.90
2023-04-12T21:05:18.653Z,99.90
2023-04-12T21:07:47.123Z,99.90
2023-04-12T21:10:15.149Z,99.90
2023-04-12T21:12:45.187Z,99.90
2023-04-12T21:15:13.132Z,99.90
2023-04-12T21:17:40.822Z,99.90
2023-04-12T21:20:16.506Z,99.90
2023-04-12T21:22:46.884Z,99.90
2023-04-12T21:25:16.982Z,99.90
2023-04-12T21:27:47.205Z,99.90
2023-04-12T21:30:15.888Z,99.90
2023-04-12T21:32:43.909Z,99.90
2023-04-12T21:35:14.008Z,99.90
2023-04-12T21:37:41.129Z,99.90
2023-04-12T21:40:09.603Z,99.90
2023-04-12T21:42:38.731Z,99.90
2023-04-12T21:45:08.669Z,99.90
2023-04-12T21:47:37.159Z,99.90
2023-04-12T21:50:04.885Z,99.90
2023-04-12T21:52:32.014Z,99.90
2023-04-12T21:54:59.304Z,99.90
2023-04-12T21:57:31.036Z,99.90
2023-04-12T21:59:59.230Z,99.90
2023-04-12T22:02:27.533Z,99.90
2023-04-12T22:04:54.854Z,99.90
2023-04-12T22:07:22.001Z,99.90
2023-04-12T22:09:51.257Z,99.90
2023-04-12T22:12:18.410Z,99.90
2023-04-12T22:14:50.164Z,99.90
2023-04-12T22:17:18.608Z,99.90
2023-04-12T22:19:46.299Z,99.90
2023-04-12T22:22:15.618Z,99.90
2023-04-12T22:24:44.348Z,99.90
2023-04-12T22:27:11.771Z,99.90
2023-04-12T22:29:39.012Z,99.90
2023-04-12T22:32:06.467Z,99.90
2023-04-12T22:34:34.124Z,99.90
2023-04-12T22:37:03.591Z,99.90
2023-04-12T22:39:34.272Z,99.90
2023-04-12T22:42:01.566Z,99.90
2023-04-12T22:44:30.108Z,99.90
2023-04-12T22:46:57.285Z,99.90
2023-04-12T22:49:28.342Z,99.90
2023-04-12T22:51:57.024Z,99.90
2023-04-12T22:54:27.212Z,99.90
2023-04-12T22:56:54.939Z,99.90
2023-04-12T22:59:24.007Z,99.90
2023-04-12T23:01:51.337Z,99.90
2023-04-12T23:04:18.699Z,99.90
2023-04-12T23:06:46.631Z,99.90
2023-04-12T23:09:13.791Z,99.90
2023-04-12T23:11:41.991Z,99.90
2023-04-12T23:14:10.152Z,99.90
2023-04-12T23:16:44.540Z,99.90
2023-04-12T23:19:13.826Z,99.90
2023-04-12T23:21:44.457Z,99.90
2023-04-12T23:24:12.383Z,99.90
2023-04-12T23:26:39.556Z,99.90
2023-04-12T23:29:06.853Z,99.90
2023-04-12T23:31:34.152Z,99.90
2023-04-12T23:34:06.230Z,99.90
2023-04-12T23:36:34.614Z,99.90
2023-04-12T23:39:04.248Z,99.90
2023-04-12T23:41:32.256Z,99.90
2023-04-12T23:44:00.672Z,99.90
2023-04-12T23:46:28.253Z,99.90
2023-04-12T23:48:55.528Z,99.90
2023-04-12T23:51:22.990Z,99.90
2023-04-12T23:53:50.397Z,99.90
2023-04-12T23:56:17.834Z,99.90
2023-04-12T23:58:45.108Z,99.90
